createdAt,value
2019-03-30T00:00:02.797Z,28.40
2019-03-30T00:02:31.535Z,25.67
2019-03-30T00:05:00.286Z,28.13
2019-03-30T00:07:29.033Z,29.50
2019-03-30T00:09:57.805Z,26.17
2019-03-30T00:12:26.546Z,25.30
2019-03-30T00:14:55.308Z,27.90
2019-03-30T00:17:24.056Z,28.70
2019-03-30T00:19:52.923Z,24.12
2019-03-30T00:22:21.747Z,25.70
2019-03-30T00:24:50.512Z,22.63
2019-03-30T00:27:19.302Z,21.93
2019-03-30T00:29:48.037Z,23.33
2019-03-30T00:32:16.929Z,26.03
2019-03-30T00:34:45.647Z,28.40
2019-03-30T00:37:14.380Z,27.60
2019-03-30T00:39:43.150Z,27.57
2019-03-30T00:42:11.925Z,27.98
2019-03-30T00:44:40.887Z,27.20
2019-03-30T00:47:09.634Z,29.50
2019-03-30T00:49:48.478Z,31.07
2019-03-30T00:52:08.929Z,31.57
2019-03-30T00:54:37.677Z,33.00
2019-03-30T00:57:06.431Z,31.33
2019-03-30T00:59:35.200Z,30.53
2019-03-30T01:02:03.989Z,36.17
2019-03-30T01:04:32.722Z,31.23
2019-03-30T01:07:01.474Z,30.20
2019-03-30T01:09:30.225Z,27.83
2019-03-30T01:11:58.981Z,29.77
2019-03-30T01:14:27.748Z,30.37
2019-03-30T01:16:56.675Z,29.20
2019-03-30T01:19:25.424Z,31.30
2019-03-30T01:21:56.239Z,29.90
2019-03-30T01:24:24.707Z,25.60
2019-03-30T01:26:53.514Z,26.87
2019-03-30T01:29:22.293Z,28.65
2019-03-30T01:31:51.050Z,30.50
2019-03-30T01:34:19.857Z,29.05
2019-03-30T01:36:48.596Z,26.77
2019-03-30T01:39:17.344Z,28.33
2019-03-30T01:41:46.100Z,27.67
2019-03-30T01:44:14.859Z,30.88
2019-03-30T01:46:43.622Z,31.73
2019-03-30T01:49:12.609Z,35.53
2019-03-30T01:51:41.355Z,38.90
2019-03-30T01:54:10.115Z,35.83
2019-03-30T01:56:38.887Z,35.20
2019-03-30T01:59:07.710Z,35.67
2019-03-30T02:01:36.578Z,34.87
2019-03-30T02:04:05.316Z,35.77
2019-03-30T02:06:34.054Z,35.80
2019-03-30T02:09:02.830Z,34.77
2019-03-30T02:11:31.589Z,36.53
2019-03-30T02:14:00.365Z,36.63
2019-03-30T02:16:29.107Z,37.60
2019-03-30T02:18:57.863Z,38.27
2019-03-30T02:21:26.610Z,31.60
2019-03-30T02:23:55.377Z,29.20
2019-03-30T02:26:24.105Z,26.13
2019-03-30T02:28:52.873Z,23.40
2019-03-30T02:31:21.676Z,25.68
2019-03-30T02:33:50.407Z,27.73
2019-03-30T02:36:19.194Z,29.20
2019-03-30T02:38:48.011Z,28.27
2019-03-30T02:41:16.776Z,26.55
2019-03-30T02:43:45.517Z,29.73
2019-03-30T02:46:14.315Z,29.20
2019-03-30T02:48:43.052Z,28.03
2019-03-30T02:51:11.840Z,26.68
2019-03-30T02:53:40.614Z,30.60
2019-03-30T02:56:09.360Z,30.87
2019-03-30T02:58:38.085Z,32.67
2019-03-30T03:01:06.852Z,26.97
2019-03-30T03:03:35.714Z,29.37
2019-03-30T03:06:04.462Z,30.25
2019-03-30T03:08:33.313Z,30.30
2019-03-30T03:11:02.104Z,31.30
2019-03-30T03:13:30.884Z,31.67
2019-03-30T03:15:59.650Z,28.47
2019-03-30T03:18:28.422Z,31.00
2019-03-30T03:21:07.483Z,29.48
2019-03-30T03:23:27.693Z,26.50
2019-03-30T03:25:56.449Z,26.30
2019-03-30T03:28:25.209Z,26.90
2019-03-30T03:30:53.992Z,27.90
2019-03-30T03:33:22.794Z,27.40
2019-03-30T03:35:51.522Z,30.90
2019-03-30T03:38:20.280Z,34.27
2019-03-30T03:40:49.008Z,29.70
2019-03-30T03:43:17.768Z,31.25
2019-03-30T03:45:46.498Z,28.83
2019-03-30T03:48:15.273Z,27.23
2019-03-30T03:50:45.780Z,24.90
2019-03-30T03:53:17.123Z,24.15
2019-03-30T03:55:46.171Z,23.90
2019-03-30T03:58:17.200Z,24.50
2019-03-30T04:00:47.727Z,23.63
2019-03-30T04:03:18.025Z,20.85
2019-03-30T04:05:49.814Z,23.50
2019-03-30T04:08:18.582Z,24.20
2019-03-30T04:10:48.804Z,24.70
2019-03-30T04:13:17.542Z,24.20
2019-03-30T04:15:46.407Z,24.57
2019-03-30T04:18:15.152Z,24.00
2019-03-30T04:20:43.983Z,26.27
2019-03-30T04:23:13.002Z,26.33
2019-03-30T04:25:41.738Z,27.77
2019-03-30T04:28:10.636Z,28.02
2019-03-30T04:30:39.360Z,26.00
2019-03-30T04:33:08.089Z,27.42
2019-03-30T04:35:36.849Z,29.27
2019-03-30T04:38:05.609Z,29.40
2019-03-30T04:40:34.348Z,26.83
2019-03-30T04:43:03.100Z,26.20
2019-03-30T04:45:31.827Z,28.33
2019-03-30T04:48:00.697Z,27.43
2019-03-30T04:50:29.428Z,26.10
2019-03-30T04:52:58.153Z,24.65
2019-03-30T04:55:26.926Z,21.33
2019-03-30T04:57:57.821Z,21.43
2019-03-30T05:00:26.214Z,25.23
2019-03-30T05:02:57.160Z,23.65
2019-03-30T05:05:26.083Z,23.27
2019-03-30T05:07:54.948Z,23.40
2019-03-30T05:10:23.683Z,25.27
2019-03-30T05:12:52.825Z,23.67
2019-03-30T05:15:21.591Z,26.10
2019-03-30T05:17:50.384Z,22.90
2019-03-30T05:20:19.131Z,22.85
2019-03-30T05:22:51.103Z,24.10
2019-03-30T05:25:18.346Z,19.63
2019-03-30T05:27:47.086Z,19.80
2019-03-30T05:30:15.960Z,21.27
2019-03-30T05:32:44.703Z,24.07
2019-03-30T05:35:13.482Z,21.87
2019-03-30T05:37:42.217Z,25.53
2019-03-30T05:40:19.060Z,23.75
2019-03-30T05:42:48.122Z,23.27
2019-03-30T05:45:16.876Z,20.10
2019-03-30T05:47:45.617Z,17.90
2019-03-30T05:50:15.856Z,17.45
2019-03-30T05:52:44.620Z,17.97
2019-03-30T05:55:13.492Z,15.20
2019-03-30T05:57:44.621Z,15.10
2019-03-30T06:00:15.933Z,14.20
2019-03-30T06:02:45.587Z,15.10
2019-03-30T06:05:14.349Z,15.55
2019-03-30T06:07:43.113Z,13.87
2019-03-30T06:10:11.985Z,16.70
2019-03-30T06:12:40.732Z,17.30
2019-03-30T06:15:09.650Z,17.57
2019-03-30T06:17:38.427Z,18.53
2019-03-30T06:20:09.853Z,16.37
2019-03-30T06:22:40.408Z,17.30
2019-03-30T06:25:10.831Z,19.17
2019-03-30T06:27:39.679Z,17.70
2019-03-30T06:30:28.361Z,18.53
2019-03-30T06:32:57.167Z,17.20
2019-03-30T06:35:26.080Z,16.30
2019-03-30T06:37:54.929Z,18.40
2019-03-30T06:40:23.675Z,16.33
2019-03-30T06:42:52.334Z,16.60
2019-03-30T06:45:21.121Z,15.70
2019-03-30T06:47:49.919Z,16.27
2019-03-30T06:50:18.714Z,15.40
2019-03-30T06:52:57.540Z,16.00
2019-03-30T06:55:18.026Z,17.57
2019-03-30T06:57:46.772Z,16.10
2019-03-30T07:00:17.290Z,15.90
2019-03-30T07:02:46.866Z,16.67
2019-03-30T07:05:15.700Z,15.10
2019-03-30T07:07:45.937Z,16.47
2019-03-30T07:10:15.989Z,16.77
2019-03-30T07:12:47.696Z,15.47
2019-03-30T07:15:16.449Z,16.93
2019-03-30T07:17:48.884Z,16.70
2019-03-30T07:20:29.194Z,14.10
2019-03-30T07:23:11.250Z,15.60
2019-03-30T07:25:29.356Z,16.03
2019-03-30T07:27:58.090Z,15.10
2019-03-30T07:30:26.863Z,15.78
2019-03-30T07:32:55.603Z,13.80
2019-03-30T07:35:24.472Z,14.40
2019-03-30T07:37:55.150Z,15.23
2019-03-30T07:40:26.674Z,16.37
2019-03-30T07:42:55.445Z,15.43
2019-03-30T07:45:24.193Z,13.67
2019-03-30T07:47:53.315Z,14.13
2019-03-30T07:50:22.051Z,14.83
2019-03-30T07:52:50.809Z,13.83
2019-03-30T07:55:20.587Z,14.63
2019-03-30T07:57:49.847Z,13.63
2019-03-30T08:00:20.075Z,13.80
2019-03-30T08:02:48.845Z,13.65
2019-03-30T08:05:17.612Z,13.40
2019-03-30T08:07:46.347Z,13.47
2019-03-30T08:10:17.531Z,13.50
2019-03-30T08:12:49.182Z,13.73
2019-03-30T08:15:22.646Z,12.93
2019-03-30T08:17:57.871Z,13.47
2019-03-30T08:20:35.645Z,11.87
2019-03-30T08:23:05.857Z,13.33
2019-03-30T08:25:34.739Z,12.97
2019-03-30T08:28:03.558Z,13.60
2019-03-30T08:30:32.340Z,12.63
2019-03-30T08:33:02.509Z,12.50
2019-03-30T08:35:31.309Z,12.60
2019-03-30T08:38:00.119Z,11.43
2019-03-30T08:40:45.302Z,11.90
2019-03-30T08:43:14.398Z,11.53
2019-03-30T08:45:43.187Z,12.97
2019-03-30T08:48:13.200Z,11.60
2019-03-30T08:50:41.986Z,10.37
2019-03-30T08:53:10.903Z,11.67
2019-03-30T08:55:39.661Z,12.10
2019-03-30T08:58:08.631Z,12.23
2019-03-30T09:00:42.481Z,11.50
2019-03-30T09:03:11.369Z,12.70
2019-03-30T09:05:40.271Z,11.67
2019-03-30T09:08:09.071Z,11.53
2019-03-30T09:10:37.844Z,12.07
2019-03-30T09:13:06.691Z,11.20
2019-03-30T09:15:35.527Z,12.40
2019-03-30T09:18:04.463Z,11.00
2019-03-30T09:20:33.327Z,9.40
2019-03-30T09:23:02.228Z,8.97
2019-03-30T09:25:31.340Z,10.27
2019-03-30T09:28:00.242Z,10.33
2019-03-30T09:30:29.012Z,9.67
2019-03-30T09:32:57.929Z,10.30
2019-03-30T09:35:26.849Z,9.27
2019-03-30T09:37:55.630Z,8.90
2019-03-30T09:40:24.371Z,11.33
2019-03-30T09:42:53.144Z,8.80
2019-03-30T09:45:21.935Z,9.60
2019-03-30T09:47:50.698Z,9.03
2019-03-30T09:50:19.469Z,9.70
2019-03-30T09:52:48.365Z,10.00
2019-03-30T09:55:17.105Z,10.57
2019-03-30T09:57:45.845Z,9.67
2019-03-30T10:00:14.717Z,9.43
2019-03-30T10:02:43.890Z,9.70
2019-03-30T10:05:12.786Z,9.30
2019-03-30T10:07:41.545Z,10.40
2019-03-30T10:10:12.910Z,9.83
2019-03-30T10:12:41.763Z,10.10
2019-03-30T10:15:11.884Z,10.30
2019-03-30T10:17:40.733Z,11.23
2019-03-30T10:20:11.213Z,10.17
2019-03-30T10:22:42.129Z,10.33
2019-03-30T10:25:10.893Z,10.43
2019-03-30T10:27:40.707Z,9.73
2019-03-30T10:30:11.935Z,9.37
2019-03-30T10:32:40.969Z,10.17
2019-03-30T10:35:09.749Z,9.53
2019-03-30T10:37:38.502Z,10.73
2019-03-30T10:40:10.171Z,11.17
2019-03-30T10:42:38.937Z,11.00
2019-03-30T10:45:09.136Z,9.85
2019-03-30T10:47:37.896Z,9.90
2019-03-30T10:50:10.016Z,10.20
2019-03-30T10:52:38.784Z,9.97
2019-03-30T10:55:07.517Z,12.00
2019-03-30T10:57:36.471Z,9.70
2019-03-30T11:00:09.122Z,9.87
2019-03-30T11:02:39.784Z,9.27
2019-03-30T11:05:09.998Z,9.43
2019-03-30T11:07:38.852Z,9.87
2019-03-30T11:10:08.167Z,10.50
2019-03-30T11:12:36.935Z,10.20
2019-03-30T11:15:07.288Z,11.20
2019-03-30T11:17:37.163Z,9.93
2019-03-30T11:20:06.632Z,9.80
2019-03-30T11:22:35.606Z,11.40
2019-03-30T11:25:07.629Z,10.87
2019-03-30T11:27:36.110Z,11.80
2019-03-30T11:30:07.174Z,11.65
2019-03-30T11:32:38.516Z,10.50
2019-03-30T11:35:08.739Z,10.13
2019-03-30T11:37:37.567Z,11.33
2019-03-30T11:40:08.142Z,10.87
2019-03-30T11:42:37.050Z,10.47
2019-03-30T11:45:07.506Z,10.93
2019-03-30T11:47:37.242Z,10.63
2019-03-30T11:50:08.542Z,10.65
2019-03-30T11:52:39.256Z,11.13
2019-03-30T11:55:21.069Z,11.20
2019-03-30T11:57:39.344Z,9.90
2019-03-30T12:00:09.776Z,9.50
2019-03-30T12:02:38.544Z,10.90
2019-03-30T12:05:08.690Z,11.15
2019-03-30T12:07:39.275Z,10.40
2019-03-30T12:10:09.105Z,10.83
2019-03-30T12:12:37.859Z,9.97
2019-03-30T12:15:10.217Z,10.83
2019-03-30T12:17:41.234Z,11.80
2019-03-30T12:20:11.376Z,10.83
2019-03-30T12:22:40.519Z,11.47
2019-03-30T12:25:09.400Z,11.00
2019-03-30T12:27:38.210Z,11.77
2019-03-30T12:30:08.608Z,10.90
2019-03-30T12:32:37.435Z,11.50
2019-03-30T12:35:07.777Z,10.70
2019-03-30T12:37:36.736Z,8.30
2019-03-30T12:40:07.580Z,10.83
2019-03-30T12:42:36.437Z,9.27
2019-03-30T12:45:07.638Z,10.03
2019-03-30T12:47:36.406Z,12.27
2019-03-30T12:50:07.039Z,11.93
2019-03-30T12:52:35.789Z,11.33
2019-03-30T12:55:05.355Z,10.57
2019-03-30T12:57:34.244Z,10.28
2019-03-30T13:00:03.639Z,10.60
2019-03-30T13:02:32.545Z,9.93
2019-03-30T13:05:01.464Z,8.00
2019-03-30T13:07:30.255Z,9.87
2019-03-30T13:09:59.061Z,9.18
2019-03-30T13:12:27.802Z,8.73
2019-03-30T13:14:56.598Z,8.07
2019-03-30T13:17:25.419Z,10.33
2019-03-30T13:19:54.490Z,9.67
2019-03-30T13:22:23.236Z,8.80
2019-03-30T13:24:52.067Z,10.43
2019-03-30T13:27:20.832Z,10.07
2019-03-30T13:29:49.575Z,9.10
2019-03-30T13:32:18.347Z,9.03
2019-03-30T13:34:47.231Z,8.65
2019-03-30T13:37:21.287Z,8.78
2019-03-30T13:39:50.066Z,8.00
2019-03-30T13:42:18.846Z,8.27
2019-03-30T13:44:47.673Z,8.77
2019-03-30T13:47:16.444Z,8.97
2019-03-30T13:49:45.250Z,10.87
2019-03-30T13:52:14.056Z,10.98
2019-03-30T13:54:43.000Z,10.30
2019-03-30T13:57:11.741Z,10.80
2019-03-30T13:59:40.501Z,10.40
2019-03-30T14:02:09.280Z,10.20
2019-03-30T14:04:38.028Z,10.10
2019-03-30T14:07:06.848Z,8.30
2019-03-30T14:09:35.608Z,10.07
2019-03-30T14:12:05.388Z,9.68
2019-03-30T14:14:34.250Z,11.13
2019-03-30T14:17:03.031Z,10.60
2019-03-30T14:19:31.854Z,10.37
2019-03-30T14:22:00.624Z,10.90
2019-03-30T14:24:29.402Z,11.53
2019-03-30T14:26:58.221Z,9.57
2019-03-30T14:29:27.089Z,10.20
2019-03-30T14:31:55.898Z,10.33
2019-03-30T14:34:24.629Z,10.00
2019-03-30T14:36:53.404Z,10.30
2019-03-30T14:39:22.224Z,9.30
2019-03-30T14:41:51.184Z,7.57
2019-03-30T14:44:19.930Z,7.00
2019-03-30T14:46:48.845Z,7.80
2019-03-30T14:49:17.660Z,8.33
2019-03-30T14:51:46.417Z,9.50
2019-03-30T14:54:15.223Z,8.33
2019-03-30T14:56:45.850Z,8.73
2019-03-30T14:59:14.852Z,7.78
2019-03-30T15:01:43.594Z,7.90
2019-03-30T15:04:12.622Z,8.18
2019-03-30T15:06:41.412Z,8.53
2019-03-30T15:09:10.234Z,7.10
2019-03-30T15:11:39.033Z,7.03
2019-03-30T15:14:07.783Z,7.47
2019-03-30T15:16:36.519Z,8.00
2019-03-30T15:19:05.474Z,7.80
2019-03-30T15:21:34.320Z,7.10
2019-03-30T15:24:03.126Z,7.63
2019-03-30T15:26:31.892Z,7.47
2019-03-30T15:29:00.661Z,7.03
2019-03-30T15:31:29.453Z,7.90
2019-03-30T15:33:58.193Z,8.60
2019-03-30T15:36:26.936Z,13.07
2019-03-30T15:38:55.698Z,13.27
2019-03-30T15:41:24.500Z,13.70
2019-03-30T15:43:53.282Z,13.67
2019-03-30T15:46:22.026Z,13.40
2019-03-30T15:48:50.924Z,14.03
2019-03-30T15:51:19.675Z,14.30
2019-03-30T15:53:48.414Z,15.20
2019-03-30T15:56:17.227Z,15.58
2019-03-30T15:58:45.966Z,16.40
2019-03-30T16:01:14.766Z,14.50
2019-03-30T16:03:43.544Z,14.70
2019-03-30T16:06:12.320Z,13.97
2019-03-30T16:08:41.192Z,14.70
2019-03-30T16:11:09.973Z,14.30
2019-03-30T16:13:39.317Z,13.93
2019-03-30T16:16:08.185Z,15.33
2019-03-30T16:18:36.929Z,17.53
2019-03-30T16:21:05.668Z,17.40
2019-03-30T16:23:34.442Z,15.00
2019-03-30T16:26:03.300Z,17.20
2019-03-30T16:28:32.087Z,15.27
2019-03-30T16:31:00.824Z,14.87
2019-03-30T16:33:29.986Z,14.23
2019-03-30T16:36:02.417Z,13.30
2019-03-30T16:38:29.451Z,13.93
2019-03-30T16:40:58.303Z,14.30
2019-03-30T16:43:27.132Z,16.70
2019-03-30T16:45:55.903Z,15.50
2019-03-30T16:48:24.689Z,18.20
2019-03-30T16:50:53.514Z,17.97
2019-03-30T16:53:22.347Z,18.73
2019-03-30T16:55:51.146Z,21.70
2019-03-30T16:58:20.028Z,20.73
2019-03-30T17:00:56.416Z,23.13
2019-03-30T17:03:23.085Z,19.37
2019-03-30T17:05:52.978Z,22.83
2019-03-30T17:08:26.670Z,22.07
2019-03-30T17:10:56.090Z,21.73
2019-03-30T17:13:24.917Z,21.77
2019-03-30T17:15:53.734Z,23.33
2019-03-30T17:18:22.490Z,23.57
2019-03-30T17:20:51.274Z,23.50
2019-03-30T17:23:20.355Z,23.27
2019-03-30T17:25:50.003Z,24.33
2019-03-30T17:28:18.777Z,23.93
2019-03-30T17:30:47.531Z,27.23
2019-03-30T17:33:16.278Z,26.68
2019-03-30T17:35:45.038Z,27.50
2019-03-30T17:38:13.981Z,27.15
2019-03-30T17:40:42.760Z,30.33
2019-03-30T17:43:11.619Z,29.32
2019-03-30T17:45:40.383Z,30.50
2019-03-30T17:48:09.200Z,35.43
2019-03-30T17:50:38.029Z,32.75
2019-03-30T17:53:06.861Z,35.33
2019-03-30T17:55:35.907Z,33.47
2019-03-30T17:58:12.831Z,32.48
2019-03-30T18:00:35.944Z,37.25
2019-03-30T18:03:05.442Z,37.67
2019-03-30T18:05:34.207Z,40.17
2019-03-30T18:08:03.069Z,41.43
2019-03-30T18:10:31.986Z,39.10
2019-03-30T18:13:00.787Z,40.52
2019-03-30T18:15:29.589Z,38.77
2019-03-30T18:17:58.443Z,38.47
2019-03-30T18:20:27.232Z,38.27
2019-03-30T18:22:56.003Z,42.62
2019-03-30T18:25:24.754Z,40.80
2019-03-30T18:27:53.590Z,37.10
2019-03-30T18:30:31.033Z,40.80
2019-03-30T18:33:00.079Z,44.63
2019-03-30T18:35:30.590Z,44.83
2019-03-30T18:38:01.566Z,45.98
2019-03-30T18:40:36.002Z,42.30
2019-03-30T18:43:05.347Z,40.25
2019-03-30T18:45:34.195Z,43.70
2019-03-30T18:48:19.014Z,47.00
2019-03-30T18:50:48.877Z,41.77
2019-03-30T18:53:18.328Z,42.77
2019-03-30T18:55:47.071Z,42.73
2019-03-30T18:58:15.972Z,44.23
2019-03-30T19:00:44.802Z,41.17
2019-03-30T19:03:13.484Z,39.78
2019-03-30T19:05:42.366Z,39.20
2019-03-30T19:08:11.024Z,36.88
2019-03-30T19:10:39.756Z,38.03
2019-03-30T19:13:08.526Z,40.33
2019-03-30T19:15:37.290Z,42.88
2019-03-30T19:18:06.063Z,41.07
2019-03-30T19:20:34.838Z,44.55
2019-03-30T19:23:03.713Z,42.27
2019-03-30T19:25:32.470Z,39.57
2019-03-30T19:28:14.503Z,38.97
2019-03-30T19:30:52.297Z,38.90
2019-03-30T19:33:21.407Z,39.80
2019-03-30T19:35:50.307Z,38.00
2019-03-30T19:38:19.161Z,36.10
2019-03-30T19:40:58.721Z,36.70
2019-03-30T19:43:38.752Z,40.27
2019-03-30T19:46:14.957Z,40.60
2019-03-30T19:48:52.429Z,38.63
2019-03-30T19:51:28.608Z,37.10
2019-03-30T19:54:09.544Z,36.63
2019-03-30T19:56:39.045Z,35.47
2019-03-30T19:59:11.137Z,35.57
2019-03-30T20:01:38.911Z,34.73
2019-03-30T20:04:08.049Z,34.80
2019-03-30T20:06:37.086Z,34.10
2019-03-30T20:09:09.615Z,36.37
2019-03-30T20:11:38.587Z,36.83
2019-03-30T20:14:08.049Z,34.00
2019-03-30T20:16:36.872Z,33.47
2019-03-30T20:19:12.793Z,36.00
2019-03-30T20:21:36.788Z,34.73
2019-03-30T20:24:05.659Z,35.83
2019-03-30T20:26:34.938Z,37.80
2019-03-30T20:29:05.217Z,37.83
2019-03-30T20:31:34.335Z,34.57
2019-03-30T20:34:03.408Z,36.43
2019-03-30T20:36:35.090Z,34.93
2019-03-30T20:39:03.839Z,35.83
2019-03-30T20:41:33.275Z,34.20
2019-03-30T20:44:02.346Z,33.87
2019-03-30T20:46:31.306Z,39.80
2019-03-30T20:49:00.261Z,42.40
2019-03-30T20:51:29.058Z,36.27
2019-03-30T20:53:58.221Z,34.17
2019-03-30T20:56:27.066Z,37.20
2019-03-30T20:58:56.075Z,42.37
2019-03-30T21:01:24.883Z,39.87
2019-03-30T21:03:54.047Z,42.93
2019-03-30T21:06:22.809Z,44.38
2019-03-30T21:08:51.741Z,38.53
2019-03-30T21:11:21.120Z,33.83
2019-03-30T21:13:50.123Z,37.00
2019-03-30T21:16:19.168Z,35.08
2019-03-30T21:18:48.250Z,38.17
2019-03-30T21:21:17.376Z,37.17
2019-03-30T21:23:46.386Z,35.40
2019-03-30T21:26:15.244Z,37.10
2019-03-30T21:28:44.042Z,30.27
2019-03-30T21:31:12.780Z,31.60
2019-03-30T21:33:41.505Z,35.60
2019-03-30T21:36:10.348Z,35.70
2019-03-30T21:38:39.107Z,33.60
2019-03-30T21:41:08.440Z,34.93
2019-03-30T21:43:37.283Z,33.80
2019-03-30T21:46:06.085Z,35.17
2019-03-30T21:48:35.053Z,32.83
2019-03-30T21:51:03.908Z,36.17
2019-03-30T21:53:33.112Z,35.60
2019-03-30T21:56:02.472Z,28.97
2019-03-30T21:58:31.239Z,31.57
2019-03-30T22:01:02.922Z,43.10
2019-03-30T22:03:32.796Z,45.88
2019-03-30T22:06:01.531Z,36.50
2019-03-30T22:08:30.274Z,38.40
2019-03-30T22:10:59.040Z,45.70
2019-03-30T22:13:27.774Z,35.63
2019-03-30T22:15:56.540Z,31.50
2019-03-30T22:18:25.281Z,30.87
2019-03-30T22:20:54.050Z,40.30
2019-03-30T22:23:22.884Z,45.20
2019-03-30T22:25:51.880Z,40.00
2019-03-30T22:28:20.819Z,36.43
2019-03-30T22:30:49.899Z,41.93
2019-03-30T22:33:18.704Z,38.25
2019-03-30T22:35:47.487Z,37.23
2019-03-30T22:38:16.343Z,35.95
2019-03-30T22:40:45.175Z,34.07
2019-03-30T22:43:13.910Z,33.80
2019-03-30T22:45:42.684Z,34.83
2019-03-30T22:48:11.491Z,34.53
2019-03-30T22:50:40.390Z,36.15
2019-03-30T22:53:09.174Z,37.03
2019-03-30T22:55:38.022Z,40.87
2019-03-30T22:58:06.868Z,37.70
2019-03-30T23:00:43.046Z,38.67
2019-03-30T23:03:12.143Z,39.10
2019-03-30T23:05:40.883Z,39.07
2019-03-30T23:08:09.668Z,38.95
2019-03-30T23:10:38.548Z,37.87
2019-03-30T23:13:07.344Z,41.40
2019-03-30T23:15:36.165Z,40.53
2019-03-30T23:18:05.059Z,39.57
2019-03-30T23:20:34.241Z,38.70
2019-03-30T23:23:02.974Z,39.78
2019-03-30T23:25:31.756Z,40.47
2019-03-30T23:28:00.549Z,38.40
2019-03-30T23:30:29.310Z,37.15
2019-03-30T23:32:58.090Z,37.70
2019-03-30T23:35:26.889Z,37.00
2019-03-30T23:37:55.739Z,37.93
2019-03-30T23:40:24.573Z,37.20
2019-03-30T23:42:53.302Z,35.10
2019-03-30T23:45:22.251Z,36.10
2019-03-30T23:47:50.997Z,38.95
2019-03-30T23:50:19.765Z,35.50
2019-03-30T23:52:48.562Z,35.73
2019-03-30T23:55:17.316Z,35.47
2019-03-30T23:57:46.251Z,32.30
